sensor_id;sensor_type;location;lat;lon;timestamp;P1;durP1;ratioP1;P2;durP2;ratioP2
20511;SDS011;10414;52.074;5.126;2022-12-07T00:01:14;10.70;;;3.38;;
20511;SDS011;10414;52.074;5.126;2022-12-07T00:03:44;11.90;;;3.22;;
20511;SDS011;10414;52.074;5.126;2022-12-07T00:06:13;6.60;;;2.65;;
20511;SDS011;10414;52.074;5.126;2022-12-07T00:08:41;10.38;;;3.33;;
20511;SDS011;10414;52.074;5.126;2022-12-07T00:11:10;7.72;;;3.13;;
20511;SDS011;10414;52.074;5.126;2022-12-07T00:13:38;7.97;;;2.85;;
20511;SDS011;10414;52.074;5.126;2022-12-07T00:16:06;9.50;;;2.85;;
20511;SDS011;10414;52.074;5.126;2022-12-07T00:18:39;13.57;;;3.10;;
20511;SDS011;10414;52.074;5.126;2022-12-07T00:21:07;8.13;;;2.75;;
20511;SDS011;10414;52.074;5.126;2022-12-07T00:23:38;7.65;;;3.05;;
20511;SDS011;10414;52.074;5.126;2022-12-07T00:26:06;7.78;;;2.60;;
20511;SDS011;10414;52.074;5.126;2022-12-07T00:28:34;7.90;;;2.78;;
20511;SDS011;10414;52.074;5.126;2022-12-07T00:31:03;7.07;;;2.33;;
20511;SDS011;10414;52.074;5.126;2022-12-07T00:33:33;6.60;;;2.42;;
20511;SDS011;10414;52.074;5.126;2022-12-07T00:36:06;6.53;;;2.10;;
20511;SDS011;10414;52.074;5.126;2022-12-07T00:38:35;7.82;;;2.00;;
20511;SDS011;10414;52.074;5.126;2022-12-07T00:41:04;5.45;;;2.03;;
20511;SDS011;10414;52.074;5.126;2022-12-07T00:43:32;7.22;;;2.30;;
20511;SDS011;10414;52.074;5.126;2022-12-07T00:45:59;8.20;;;2.80;;
20511;SDS011;10414;52.074;5.126;2022-12-07T00:48:26;6.15;;;1.77;;
20511;SDS011;10414;52.074;5.126;2022-12-07T00:50:53;5.13;;;1.98;;
20511;SDS011;10414;52.074;5.126;2022-12-07T00:53:22;7.80;;;2.30;;
20511;SDS011;10414;52.074;5.126;2022-12-07T00:55:49;7.03;;;1.90;;
20511;SDS011;10414;52.074;5.126;2022-12-07T00:58:15;10.45;;;2.05;;
20511;SDS011;10414;52.074;5.126;2022-12-07T01:00:44;7.32;;;1.60;;
20511;SDS011;10414;52.074;5.126;2022-12-07T01:03:12;9.23;;;2.30;;
20511;SDS011;10414;52.074;5.126;2022-12-07T01:05:40;9.13;;;2.55;;
20511;SDS011;10414;52.074;5.126;2022-12-07T01:08:16;5.22;;;2.50;;
20511;SDS011;10414;52.074;5.126;2022-12-07T01:10:44;8.55;;;2.22;;
20511;SDS011;10414;52.074;5.126;2022-12-07T01:13:11;10.25;;;2.40;;
20511;SDS011;10414;52.074;5.126;2022-12-07T01:15:38;6.55;;;2.50;;
20511;SDS011;10414;52.074;5.126;2022-12-07T01:18:09;8.80;;;2.85;;
20511;SDS011;10414;52.074;5.126;2022-12-07T01:20:41;6.57;;;2.30;;
20511;SDS011;10414;52.074;5.126;2022-12-07T01:23:08;8.80;;;2.20;;
20511;SDS011;10414;52.074;5.126;2022-12-07T01:25:34;7.70;;;2.47;;
20511;SDS011;10414;52.074;5.126;2022-12-07T01:28:05;5.40;;;2.20;;
20511;SDS011;10414;52.074;5.126;2022-12-07T01:30:32;8.90;;;2.92;;
20511;SDS011;10414;52.074;5.126;2022-12-07T01:32:59;9.20;;;2.63;;
20511;SDS011;10414;52.074;5.126;2022-12-07T01:35:26;6.93;;;2.53;;
20511;SDS011;10414;52.074;5.126;2022-12-07T01:37:53;7.72;;;2.35;;
20511;SDS011;10414;52.074;5.126;2022-12-07T01:40:19;8.43;;;2.70;;
20511;SDS011;10414;52.074;5.126;2022-12-07T01:42:46;7.85;;;2.35;;
20511;SDS011;10414;52.074;5.126;2022-12-07T01:48:07;10.10;;;2.85;;
20511;SDS011;10414;52.074;5.126;2022-12-07T01:50:37;9.73;;;2.75;;
20511;SDS011;10414;52.074;5.126;2022-12-07T01:53:05;5.80;;;2.15;;
20511;SDS011;10414;52.074;5.126;2022-12-07T01:55:35;7.85;;;2.53;;
20511;SDS011;10414;52.074;5.126;2022-12-07T01:58:06;7.57;;;2.50;;
20511;SDS011;10414;52.074;5.126;2022-12-07T02:00:33;11.57;;;2.47;;
20511;SDS011;10414;52.074;5.126;2022-12-07T02:03:04;11.80;;;2.60;;
20511;SDS011;10414;52.074;5.126;2022-12-07T02:05:34;5.88;;;2.30;;
20511;SDS011;10414;52.074;5.126;2022-12-07T02:08:06;8.50;;;2.42;;
20511;SDS011;10414;52.074;5.126;2022-12-07T02:10:35;8.73;;;2.40;;
20511;SDS011;10414;52.074;5.126;2022-12-07T02:13:04;8.75;;;2.33;;
20511;SDS011;10414;52.074;5.126;2022-12-07T02:18:07;7.60;;;2.22;;
20511;SDS011;10414;52.074;5.126;2022-12-07T02:20:41;5.80;;;1.83;;
20511;SDS011;10414;52.074;5.126;2022-12-07T02:23:32;7.07;;;1.92;;
20511;SDS011;10414;52.074;5.126;2022-12-07T02:26:24;9.85;;;1.80;;
20511;SDS011;10414;52.074;5.126;2022-12-07T02:29:18;6.95;;;1.65;;
20511;SDS011;10414;52.074;5.126;2022-12-07T02:31:51;7.93;;;1.90;;
20511;SDS011;10414;52.074;5.126;2022-12-07T02:34:26;6.30;;;1.63;;
20511;SDS011;10414;52.074;5.126;2022-12-07T02:37:00;6.13;;;1.80;;
20511;SDS011;10414;52.074;5.126;2022-12-07T02:39:31;8.40;;;2.55;;
20511;SDS011;10414;52.074;5.126;2022-12-07T02:42:04;6.85;;;1.42;;
20511;SDS011;10414;52.074;5.126;2022-12-07T02:44:39;6.78;;;1.40;;
20511;SDS011;10414;52.074;5.126;2022-12-07T02:47:10;3.35;;;1.40;;
20511;SDS011;10414;52.074;5.126;2022-12-07T02:49:40;7.68;;;1.80;;
20511;SDS011;10414;52.074;5.126;2022-12-07T02:52:09;5.22;;;1.50;;
20511;SDS011;10414;52.074;5.126;2022-12-07T02:54:36;4.68;;;1.50;;
20511;SDS011;10414;52.074;5.126;2022-12-07T02:57:05;6.72;;;1.33;;
20511;SDS011;10414;52.074;5.126;2022-12-07T02:59:46;6.53;;;1.30;;
20511;SDS011;10414;52.074;5.126;2022-12-07T03:02:25;7.35;;;1.63;;
20511;SDS011;10414;52.074;5.126;2022-12-07T03:05:02;6.22;;;1.58;;
20511;SDS011;10414;52.074;5.126;2022-12-07T03:07:42;7.85;;;1.65;;
20511;SDS011;10414;52.074;5.126;2022-12-07T03:10:19;6.90;;;1.50;;
20511;SDS011;10414;52.074;5.126;2022-12-07T03:12:56;7.43;;;1.23;;
20511;SDS011;10414;52.074;5.126;2022-12-07T03:15:31;8.30;;;1.40;;
20511;SDS011;10414;52.074;5.126;2022-12-07T03:18:02;7.93;;;1.63;;
20511;SDS011;10414;52.074;5.126;2022-12-07T03:20:33;8.80;;;1.40;;
20511;SDS011;10414;52.074;5.126;2022-12-07T03:23:05;7.47;;;1.30;;
20511;SDS011;10414;52.074;5.126;2022-12-07T03:25:34;14.40;;;1.60;;
20511;SDS011;10414;52.074;5.126;2022-12-07T03:28:05;9.48;;;1.40;;
20511;SDS011;10414;52.074;5.126;2022-12-07T03:30:37;9.50;;;1.20;;
20511;SDS011;10414;52.074;5.126;2022-12-07T03:33:09;7.35;;;1.10;;
20511;SDS011;10414;52.074;5.126;2022-12-07T03:35:40;3.83;;;1.30;;
20511;SDS011;10414;52.074;5.126;2022-12-07T03:38:14;7.75;;;1.30;;
20511;SDS011;10414;52.074;5.126;2022-12-07T03:40:59;5.05;;;0.95;;
20511;SDS011;10414;52.074;5.126;2022-12-07T03:43:29;9.20;;;1.30;;
20511;SDS011;10414;52.074;5.126;2022-12-07T03:46:00;7.38;;;1.38;;
20511;SDS011;10414;52.074;5.126;2022-12-07T03:48:40;8.35;;;2.13;;
20511;SDS011;10414;52.074;5.126;2022-12-07T03:51:13;8.05;;;2.10;;
20511;SDS011;10414;52.074;5.126;2022-12-07T03:53:48;9.25;;;1.92;;
20511;SDS011;10414;52.074;5.126;2022-12-07T03:56:24;7.32;;;2.00;;
20511;SDS011;10414;52.074;5.126;2022-12-07T03:58:54;8.52;;;1.80;;
20511;SDS011;10414;52.074;5.126;2022-12-07T04:01:25;9.48;;;2.20;;
20511;SDS011;10414;52.074;5.126;2022-12-07T04:03:52;6.95;;;1.88;;
20511;SDS011;10414;52.074;5.126;2022-12-07T04:06:18;4.28;;;1.45;;
20511;SDS011;10414;52.074;5.126;2022-12-07T04:08:47;6.95;;;1.70;;
20511;SDS011;10414;52.074;5.126;2022-12-07T04:11:14;7.40;;;1.50;;
20511;SDS011;10414;52.074;5.126;2022-12-07T04:13:43;7.95;;;1.73;;
20511;SDS011;10414;52.074;5.126;2022-12-07T04:16:28;5.45;;;1.40;;
20511;SDS011;10414;52.074;5.126;2022-12-07T04:18:58;4.57;;;1.60;;
20511;SDS011;10414;52.074;5.126;2022-12-07T04:23:52;6.90;;;1.23;;
20511;SDS011;10414;52.074;5.126;2022-12-07T04:26:19;5.82;;;1.10;;
20511;SDS011;10414;52.074;5.126;2022-12-07T04:28:46;5.68;;;1.45;;
20511;SDS011;10414;52.074;5.126;2022-12-07T04:31:15;8.95;;;1.40;;
20511;SDS011;10414;52.074;5.126;2022-12-07T04:33:45;6.63;;;1.30;;
20511;SDS011;10414;52.074;5.126;2022-12-07T04:36:12;7.25;;;1.40;;
20511;SDS011;10414;52.074;5.126;2022-12-07T04:38:40;6.53;;;1.42;;
20511;SDS011;10414;52.074;5.126;2022-12-07T04:41:07;3.97;;;1.23;;
20511;SDS011;10414;52.074;5.126;2022-12-07T04:43:37;6.00;;;1.20;;
20511;SDS011;10414;52.074;5.126;2022-12-07T04:46:08;5.07;;;1.10;;
20511;SDS011;10414;52.074;5.126;2022-12-07T04:48:36;9.50;;;1.52;;
20511;SDS011;10414;52.074;5.126;2022-12-07T04:51:07;6.60;;;1.20;;
20511;SDS011;10414;52.074;5.126;2022-12-07T04:53:33;4.47;;;1.08;;
20511;SDS011;10414;52.074;5.126;2022-12-07T04:56:00;6.38;;;1.13;;
20511;SDS011;10414;52.074;5.126;2022-12-07T04:58:27;7.70;;;1.20;;
20511;SDS011;10414;52.074;5.126;2022-12-07T05:00:56;9.48;;;1.38;;
20511;SDS011;10414;52.074;5.126;2022-12-07T05:03:22;6.50;;;1.50;;
20511;SDS011;10414;52.074;5.126;2022-12-07T05:05:49;8.55;;;1.30;;
20511;SDS011;10414;52.074;5.126;2022-12-07T05:08:20;5.45;;;1.45;;
20511;SDS011;10414;52.074;5.126;2022-12-07T05:10:48;7.90;;;1.60;;
20511;SDS011;10414;52.074;5.126;2022-12-07T05:13:15;6.65;;;1.30;;
20511;SDS011;10414;52.074;5.126;2022-12-07T05:15:46;6.88;;;1.42;;
20511;SDS011;10414;52.074;5.126;2022-12-07T05:18:12;4.43;;;1.10;;
20511;SDS011;10414;52.074;5.126;2022-12-07T05:20:40;5.20;;;1.65;;
20511;SDS011;10414;52.074;5.126;2022-12-07T05:23:10;7.72;;;1.50;;
20511;SDS011;10414;52.074;5.126;2022-12-07T05:25:39;4.32;;;1.40;;
20511;SDS011;10414;52.074;5.126;2022-12-07T05:28:06;3.30;;;0.98;;
20511;SDS011;10414;52.074;5.126;2022-12-07T05:30:32;4.93;;;1.27;;
20511;SDS011;10414;52.074;5.126;2022-12-07T05:32:59;7.88;;;1.38;;
20511;SDS011;10414;52.074;5.126;2022-12-07T05:37:56;12.48;;;1.50;;
20511;SDS011;10414;52.074;5.126;2022-12-07T05:40:26;8.07;;;1.52;;
20511;SDS011;10414;52.074;5.126;2022-12-07T05:42:54;8.00;;;1.42;;
20511;SDS011;10414;52.074;5.126;2022-12-07T05:45:21;7.97;;;1.48;;
20511;SDS011;10414;52.074;5.126;2022-12-07T05:47:54;9.02;;;1.40;;
20511;SDS011;10414;52.074;5.126;2022-12-07T05:50:21;3.90;;;1.10;;
20511;SDS011;10414;52.074;5.126;2022-12-07T05:52:48;4.80;;;1.38;;
20511;SDS011;10414;52.074;5.126;2022-12-07T05:55:15;2.80;;;1.17;;
20511;SDS011;10414;52.074;5.126;2022-12-07T05:57:41;3.88;;;1.30;;
20511;SDS011;10414;52.074;5.126;2022-12-07T06:00:32;6.85;;;1.55;;
20511;SDS011;10414;52.074;5.126;2022-12-07T06:02:58;5.05;;;1.20;;
20511;SDS011;10414;52.074;5.126;2022-12-07T06:05:27;6.80;;;1.52;;
20511;SDS011;10414;52.074;5.126;2022-12-07T06:07:54;7.22;;;1.65;;
20511;SDS011;10414;52.074;5.126;2022-12-07T06:10:21;5.03;;;1.55;;
20511;SDS011;10414;52.074;5.126;2022-12-07T06:12:48;6.72;;;1.30;;
20511;SDS011;10414;52.074;5.126;2022-12-07T06:15:16;8.88;;;1.60;;
20511;SDS011;10414;52.074;5.126;2022-12-07T06:17:44;8.07;;;1.60;;
20511;SDS011;10414;52.074;5.126;2022-12-07T06:20:11;8.85;;;1.58;;
20511;SDS011;10414;52.074;5.126;2022-12-07T06:22:38;9.90;;;1.50;;
20511;SDS011;10414;52.074;5.126;2022-12-07T06:25:05;4.07;;;1.20;;
20511;SDS011;10414;52.074;5.126;2022-12-07T06:27:35;10.27;;;1.42;;
20511;SDS011;10414;52.074;5.126;2022-12-07T06:30:02;8.40;;;1.55;;
20511;SDS011;10414;52.074;5.126;2022-12-07T06:32:35;7.32;;;1.95;;
20511;SDS011;10414;52.074;5.126;2022-12-07T06:35:04;8.05;;;1.83;;
20511;SDS011;10414;52.074;5.126;2022-12-07T06:37:33;10.40;;;1.70;;
20511;SDS011;10414;52.074;5.126;2022-12-07T06:39:59;5.60;;;1.52;;
20511;SDS011;10414;52.074;5.126;2022-12-07T06:42:29;7.40;;;1.20;;
20511;SDS011;10414;52.074;5.126;2022-12-07T06:44:56;9.70;;;1.50;;
20511;SDS011;10414;52.074;5.126;2022-12-07T06:47:23;8.05;;;2.28;;
20511;SDS011;10414;52.074;5.126;2022-12-07T06:49:52;7.95;;;1.98;;
20511;SDS011;10414;52.074;5.126;2022-12-07T06:52:23;9.25;;;1.98;;
20511;SDS011;10414;52.074;5.126;2022-12-07T06:54:51;9.13;;;1.60;;
20511;SDS011;10414;52.074;5.126;2022-12-07T06:57:18;8.80;;;2.35;;
20511;SDS011;10414;52.074;5.126;2022-12-07T06:59:48;10.88;;;1.67;;
20511;SDS011;10414;52.074;5.126;2022-12-07T07:02:17;7.85;;;1.98;;
20511;SDS011;10414;52.074;5.126;2022-12-07T07:04:44;5.60;;;1.80;;
20511;SDS011;10414;52.074;5.126;2022-12-07T07:07:13;9.00;;;2.13;;
20511;SDS011;10414;52.074;5.126;2022-12-07T07:09:41;8.68;;;1.98;;
20511;SDS011;10414;52.074;5.126;2022-12-07T07:12:07;6.63;;;1.60;;
20511;SDS011;10414;52.074;5.126;2022-12-07T07:14:34;9.25;;;1.70;;
20511;SDS011;10414;52.074;5.126;2022-12-07T07:17:01;12.00;;;1.88;;
20511;SDS011;10414;52.074;5.126;2022-12-07T07:19:28;6.30;;;2.75;;
20511;SDS011;10414;52.074;5.126;2022-12-07T07:22:01;11.18;;;1.70;;
20511;SDS011;10414;52.074;5.126;2022-12-07T07:24:28;6.38;;;1.38;;
20511;SDS011;10414;52.074;5.126;2022-12-07T07:26:56;9.98;;;2.25;;
20511;SDS011;10414;52.074;5.126;2022-12-07T07:29:23;7.35;;;1.35;;
20511;SDS011;10414;52.074;5.126;2022-12-07T07:31:52;6.43;;;1.58;;
20511;SDS011;10414;52.074;5.126;2022-12-07T07:34:19;11.90;;;2.20;;
20511;SDS011;10414;52.074;5.126;2022-12-07T07:36:48;9.60;;;1.77;;
20511;SDS011;10414;52.074;5.126;2022-12-07T07:39:15;9.85;;;1.73;;
20511;SDS011;10414;52.074;5.126;2022-12-07T07:41:42;7.18;;;1.40;;
20511;SDS011;10414;52.074;5.126;2022-12-07T07:44:10;5.70;;;1.50;;
20511;SDS011;10414;52.074;5.126;2022-12-07T07:46:37;8.95;;;1.80;;
20511;SDS011;10414;52.074;5.126;2022-12-07T07:49:05;7.78;;;1.40;;
20511;SDS011;10414;52.074;5.126;2022-12-07T07:51:34;7.68;;;2.25;;
20511;SDS011;10414;52.074;5.126;2022-12-07T07:54:01;10.85;;;1.65;;
20511;SDS011;10414;52.074;5.126;2022-12-07T07:56:28;10.68;;;1.63;;
20511;SDS011;10414;52.074;5.126;2022-12-07T07:59:01;9.88;;;2.10;;
20511;SDS011;10414;52.074;5.126;2022-12-07T08:01:29;7.78;;;1.38;;
20511;SDS011;10414;52.074;5.126;2022-12-07T08:03:56;5.30;;;1.20;;
20511;SDS011;10414;52.074;5.126;2022-12-07T08:06:23;7.70;;;1.50;;
20511;SDS011;10414;52.074;5.126;2022-12-07T08:08:50;5.57;;;1.60;;
20511;SDS011;10414;52.074;5.126;2022-12-07T08:11:16;7.30;;;1.35;;
20511;SDS011;10414;52.074;5.126;2022-12-07T08:13:44;7.68;;;1.50;;
20511;SDS011;10414;52.074;5.126;2022-12-07T08:16:13;6.25;;;1.30;;
20511;SDS011;10414;52.074;5.126;2022-12-07T08:18:44;6.25;;;1.50;;
20511;SDS011;10414;52.074;5.126;2022-12-07T08:21:11;10.93;;;1.70;;
20511;SDS011;10414;52.074;5.126;2022-12-07T08:23:40;9.50;;;1.92;;
20511;SDS011;10414;52.074;5.126;2022-12-07T08:26:10;7.90;;;1.60;;
20511;SDS011;10414;52.074;5.126;2022-12-07T08:28:39;8.18;;;1.58;;
20511;SDS011;10414;52.074;5.126;2022-12-07T08:31:06;8.65;;;3.30;;
20511;SDS011;10414;52.074;5.126;2022-12-07T08:33:35;6.40;;;1.95;;
20511;SDS011;10414;52.074;5.126;2022-12-07T08:36:04;7.03;;;2.05;;
20511;SDS011;10414;52.074;5.126;2022-12-07T08:40:59;5.10;;;1.30;;
20511;SDS011;10414;52.074;5.126;2022-12-07T08:43:26;6.95;;;1.60;;
20511;SDS011;10414;52.074;5.126;2022-12-07T08:45:54;5.53;;;1.50;;
20511;SDS011;10414;52.074;5.126;2022-12-07T08:48:31;12.30;;;3.75;;
20511;SDS011;10414;52.074;5.126;2022-12-07T08:51:02;7.45;;;1.80;;
20511;SDS011;10414;52.074;5.126;2022-12-07T08:53:30;7.03;;;1.40;;
20511;SDS011;10414;52.074;5.126;2022-12-07T08:55:59;6.57;;;1.42;;
20511;SDS011;10414;52.074;5.126;2022-12-07T08:58:29;6.90;;;1.60;;
20511;SDS011;10414;52.074;5.126;2022-12-07T09:00:56;4.55;;;1.50;;
20511;SDS011;10414;52.074;5.126;2022-12-07T09:03:25;6.88;;;1.30;;
20511;SDS011;10414;52.074;5.126;2022-12-07T09:05:52;7.82;;;1.60;;
20511;SDS011;10414;52.074;5.126;2022-12-07T09:08:21;10.80;;;1.73;;
20511;SDS011;10414;52.074;5.126;2022-12-07T09:10:51;7.80;;;1.55;;
20511;SDS011;10414;52.074;5.126;2022-12-07T09:13:18;3.88;;;1.30;;
20511;SDS011;10414;52.074;5.126;2022-12-07T09:15:45;6.57;;;1.50;;
20511;SDS011;10414;52.074;5.126;2022-12-07T09:18:14;9.43;;;2.15;;
20511;SDS011;10414;52.074;5.126;2022-12-07T09:20:41;5.07;;;1.40;;
20511;SDS011;10414;52.074;5.126;2022-12-07T09:23:08;7.20;;;1.20;;
20511;SDS011;10414;52.074;5.126;2022-12-07T09:25:36;6.05;;;1.40;;
20511;SDS011;10414;52.074;5.126;2022-12-07T09:28:03;8.07;;;1.50;;
20511;SDS011;10414;52.074;5.126;2022-12-07T09:30:30;5.10;;;1.58;;
20511;SDS011;10414;52.074;5.126;2022-12-07T09:33:01;7.22;;;1.58;;
20511;SDS011;10414;52.074;5.126;2022-12-07T09:35:28;7.82;;;1.50;;
20511;SDS011;10414;52.074;5.126;2022-12-07T09:37:57;5.28;;;1.25;;
20511;SDS011;10414;52.074;5.126;2022-12-07T09:40:24;5.28;;;1.27;;
20511;SDS011;10414;52.074;5.126;2022-12-07T09:42:53;5.05;;;1.40;;
20511;SDS011;10414;52.074;5.126;2022-12-07T09:45:22;6.30;;;1.58;;
20511;SDS011;10414;52.074;5.126;2022-12-07T09:47:50;7.75;;;1.42;;
20511;SDS011;10414;52.074;5.126;2022-12-07T09:50:19;4.10;;;1.27;;
20511;SDS011;10414;52.074;5.126;2022-12-07T09:55:19;6.05;;;1.33;;
20511;SDS011;10414;52.074;5.126;2022-12-07T09:57:51;7.90;;;1.67;;
20511;SDS011;10414;52.074;5.126;2022-12-07T10:00:21;8.50;;;1.40;;
20511;SDS011;10414;52.074;5.126;2022-12-07T10:02:53;4.28;;;1.23;;
20511;SDS011;10414;52.074;5.126;2022-12-07T10:05:23;5.85;;;1.55;;
20511;SDS011;10414;52.074;5.126;2022-12-07T10:07:53;7.13;;;1.15;;
20511;SDS011;10414;52.074;5.126;2022-12-07T10:10:23;8.43;;;1.70;;
20511;SDS011;10414;52.074;5.126;2022-12-07T10:12:59;6.50;;;1.63;;
20511;SDS011;10414;52.074;5.126;2022-12-07T10:18:25;6.50;;;1.55;;
20511;SDS011;10414;52.074;5.126;2022-12-07T10:21:02;7.35;;;1.70;;
20511;SDS011;10414;52.074;5.126;2022-12-07T10:23:32;5.38;;;1.40;;
20511;SDS011;10414;52.074;5.126;2022-12-07T10:26:00;5.20;;;1.58;;
20511;SDS011;10414;52.074;5.126;2022-12-07T10:28:55;5.60;;;1.35;;
20511;SDS011;10414;52.074;5.126;2022-12-07T10:31:29;9.27;;;1.42;;
20511;SDS011;10414;52.074;5.126;2022-12-07T10:34:12;5.97;;;1.25;;
20511;SDS011;10414;52.074;5.126;2022-12-07T10:36:47;4.93;;;1.25;;
20511;SDS011;10414;52.074;5.126;2022-12-07T10:39:15;4.80;;;1.25;;
20511;SDS011;10414;52.074;5.126;2022-12-07T10:41:53;5.78;;;1.27;;
20511;SDS011;10414;52.074;5.126;2022-12-07T10:44:24;8.02;;;1.92;;
20511;SDS011;10414;52.074;5.126;2022-12-07T10:52:39;6.72;;;1.25;;
20511;SDS011;10414;52.074;5.126;2022-12-07T10:55:16;4.13;;;1.13;;
20511;SDS011;10414;52.074;5.126;2022-12-07T10:57:52;6.28;;;1.55;;
20511;SDS011;10414;52.074;5.126;2022-12-07T11:00:33;7.28;;;1.65;;
20511;SDS011;10414;52.074;5.126;2022-12-07T11:03:11;8.27;;;1.48;;
20511;SDS011;10414;52.074;5.126;2022-12-07T11:05:57;4.18;;;0.98;;
20511;SDS011;10414;52.074;5.126;2022-12-07T11:08:43;6.43;;;1.00;;
20511;SDS011;10414;52.074;5.126;2022-12-07T11:11:19;4.85;;;1.17;;
20511;SDS011;10414;52.074;5.126;2022-12-07T11:13:52;6.65;;;1.20;;
20511;SDS011;10414;52.074;5.126;2022-12-07T11:16:34;7.22;;;1.00;;
20511;SDS011;10414;52.074;5.126;2022-12-07T11:19:16;5.20;;;1.00;;
20511;SDS011;10414;52.074;5.126;2022-12-07T11:22:01;9.20;;;1.10;;
20511;SDS011;10414;52.074;5.126;2022-12-07T11:24:32;7.07;;;0.90;;
20511;SDS011;10414;52.074;5.126;2022-12-07T11:27:11;3.65;;;0.82;;
20511;SDS011;10414;52.074;5.126;2022-12-07T11:29:49;4.72;;;1.00;;
20511;SDS011;10414;52.074;5.126;2022-12-07T11:32:26;6.13;;;0.90;;
20511;SDS011;10414;52.074;5.126;2022-12-07T11:35:14;4.80;;;0.98;;
20511;SDS011;10414;52.074;5.126;2022-12-07T11:37:50;7.68;;;1.13;;
20511;SDS011;10414;52.074;5.126;2022-12-07T11:40:24;7.70;;;1.23;;
20511;SDS011;10414;52.074;5.126;2022-12-07T11:42:55;7.93;;;1.20;;
20511;SDS011;10414;52.074;5.126;2022-12-07T11:45:30;5.63;;;1.30;;
20511;SDS011;10414;52.074;5.126;2022-12-07T11:48:04;6.28;;;1.05;;
20511;SDS011;10414;52.074;5.126;2022-12-07T11:50:39;3.83;;;1.00;;
20511;SDS011;10414;52.074;5.126;2022-12-07T11:55:40;3.58;;;0.75;;
20511;SDS011;10414;52.074;5.126;2022-12-07T11:58:18;4.50;;;1.00;;
20511;SDS011;10414;52.074;5.126;2022-12-07T12:01:05;3.13;;;0.80;;
20511;SDS011;10414;52.074;5.126;2022-12-07T12:03:42;11.40;;;1.30;;
20511;SDS011;10414;52.074;5.126;2022-12-07T12:06:12;4.88;;;0.95;;
20511;SDS011;10414;52.074;5.126;2022-12-07T12:08:39;5.38;;;1.00;;
20511;SDS011;10414;52.074;5.126;2022-12-07T12:11:13;3.97;;;1.23;;
20511;SDS011;10414;52.074;5.126;2022-12-07T12:16:56;6.25;;;1.15;;
20511;SDS011;10414;52.074;5.126;2022-12-07T12:19:40;5.43;;;1.00;;
20511;SDS011;10414;52.074;5.126;2022-12-07T12:22:10;5.45;;;1.17;;
20511;SDS011;10414;52.074;5.126;2022-12-07T12:24:41;8.13;;;1.38;;
20511;SDS011;10414;52.074;5.126;2022-12-07T12:27:15;13.75;;;4.88;;
20511;SDS011;10414;52.074;5.126;2022-12-07T12:29:52;6.65;;;1.65;;
20511;SDS011;10414;52.074;5.126;2022-12-07T12:32:21;6.03;;;1.10;;
20511;SDS011;10414;52.074;5.126;2022-12-07T12:35:02;6.45;;;1.10;;
20511;SDS011;10414;52.074;5.126;2022-12-07T12:37:45;7.95;;;1.30;;
20511;SDS011;10414;52.074;5.126;2022-12-07T12:40:37;3.13;;;0.90;;
20511;SDS011;10414;52.074;5.126;2022-12-07T12:55:19;3.97;;;1.00;;
20511;SDS011;10414;52.074;5.126;2022-12-07T13:04:01;3.42;;;0.90;;
20511;SDS011;10414;52.074;5.126;2022-12-07T13:06:32;5.68;;;0.80;;
20511;SDS011;10414;52.074;5.126;2022-12-07T13:09:04;5.65;;;1.13;;
20511;SDS011;10414;52.074;5.126;2022-12-07T13:11:48;6.95;;;1.13;;
20511;SDS011;10414;52.074;5.126;2022-12-07T13:17:08;4.80;;;1.15;;
20511;SDS011;10414;52.074;5.126;2022-12-07T13:25:20;7.07;;;1.10;;
20511;SDS011;10414;52.074;5.126;2022-12-07T13:27:57;8.27;;;1.40;;
20511;SDS011;10414;52.074;5.126;2022-12-07T13:30:27;4.32;;;1.00;;
20511;SDS011;10414;52.074;5.126;2022-12-07T13:32:56;6.38;;;1.00;;
20511;SDS011;10414;52.074;5.126;2022-12-07T13:35:29;5.68;;;1.30;;
20511;SDS011;10414;52.074;5.126;2022-12-07T13:37:58;6.72;;;1.48;;
20511;SDS011;10414;52.074;5.126;2022-12-07T13:40:26;6.18;;;0.93;;
20511;SDS011;10414;52.074;5.126;2022-12-07T13:42:57;3.60;;;0.70;;
20511;SDS011;10414;52.074;5.126;2022-12-07T13:45:26;6.15;;;1.13;;
20511;SDS011;10414;52.074;5.126;2022-12-07T13:48:08;2.63;;;0.90;;
20511;SDS011;10414;52.074;5.126;2022-12-07T13:50:40;4.93;;;1.00;;
20511;SDS011;10414;52.074;5.126;2022-12-07T13:53:11;3.85;;;0.70;;
20511;SDS011;10414;52.074;5.126;2022-12-07T13:55:45;2.75;;;0.65;;
20511;SDS011;10414;52.074;5.126;2022-12-07T13:58:13;2.33;;;0.60;;
20511;SDS011;10414;52.074;5.126;2022-12-07T14:00:40;5.85;;;0.60;;
20511;SDS011;10414;52.074;5.126;2022-12-07T14:09:05;5.70;;;0.60;;
20511;SDS011;10414;52.074;5.126;2022-12-07T14:11:34;10.57;;;1.42;;
20511;SDS011;10414;52.074;5.126;2022-12-07T14:14:02;4.07;;;0.88;;
20511;SDS011;10414;52.074;5.126;2022-12-07T14:16:30;2.55;;;0.70;;
20511;SDS011;10414;52.074;5.126;2022-12-07T14:19:00;5.00;;;0.90;;
20511;SDS011;10414;52.074;5.126;2022-12-07T14:21:32;4.15;;;0.60;;
20511;SDS011;10414;52.074;5.126;2022-12-07T14:24:08;4.28;;;0.80;;
20511;SDS011;10414;52.074;5.126;2022-12-07T14:26:45;4.88;;;0.70;;
20511;SDS011;10414;52.074;5.126;2022-12-07T14:29:19;4.03;;;0.98;;
20511;SDS011;10414;52.074;5.126;2022-12-07T14:31:48;4.72;;;0.80;;
20511;SDS011;10414;52.074;5.126;2022-12-07T14:34:16;4.72;;;1.15;;
20511;SDS011;10414;52.074;5.126;2022-12-07T14:36:52;3.13;;;0.70;;
20511;SDS011;10414;52.074;5.126;2022-12-07T14:39:19;4.50;;;0.80;;
20511;SDS011;10414;52.074;5.126;2022-12-07T14:41:47;2.60;;;0.50;;
20511;SDS011;10414;52.074;5.126;2022-12-07T14:44:19;4.80;;;0.70;;
20511;SDS011;10414;52.074;5.126;2022-12-07T14:46:49;5.85;;;1.10;;
20511;SDS011;10414;52.074;5.126;2022-12-07T14:49:17;5.15;;;1.10;;
20511;SDS011;10414;52.074;5.126;2022-12-07T14:51:44;4.13;;;0.85;;
20511;SDS011;10414;52.074;5.126;2022-12-07T14:54:15;4.15;;;0.80;;
20511;SDS011;10414;52.074;5.126;2022-12-07T14:56:44;3.10;;;0.53;;
20511;SDS011;10414;52.074;5.126;2022-12-07T14:59:15;3.03;;;0.75;;
20511;SDS011;10414;52.074;5.126;2022-12-07T15:01:43;4.07;;;0.90;;
20511;SDS011;10414;52.074;5.126;2022-12-07T15:04:11;5.60;;;0.90;;
20511;SDS011;10414;52.074;5.126;2022-12-07T15:06:38;4.03;;;1.58;;
20511;SDS011;10414;52.074;5.126;2022-12-07T15:09:08;3.35;;;0.93;;
20511;SDS011;10414;52.074;5.126;2022-12-07T15:11:36;4.50;;;1.08;;
20511;SDS011;10414;52.074;5.126;2022-12-07T15:14:05;3.58;;;0.80;;
20511;SDS011;10414;52.074;5.126;2022-12-07T15:16:43;3.25;;;0.98;;
20511;SDS011;10414;52.074;5.126;2022-12-07T15:19:10;5.03;;;1.00;;
20511;SDS011;10414;52.074;5.126;2022-12-07T15:21:40;4.47;;;1.00;;
20511;SDS011;10414;52.074;5.126;2022-12-07T15:24:11;5.55;;;1.30;;
20511;SDS011;10414;52.074;5.126;2022-12-07T15:26:38;4.72;;;0.90;;
20511;SDS011;10414;52.074;5.126;2022-12-07T15:29:08;2.60;;;0.90;;
20511;SDS011;10414;52.074;5.126;2022-12-07T15:31:39;2.63;;;0.80;;
20511;SDS011;10414;52.074;5.126;2022-12-07T15:34:07;2.72;;;0.82;;
20511;SDS011;10414;52.074;5.126;2022-12-07T15:36:35;3.85;;;0.90;;
20511;SDS011;10414;52.074;5.126;2022-12-07T15:39:03;4.22;;;1.00;;
20511;SDS011;10414;52.074;5.126;2022-12-07T15:41:29;4.03;;;0.98;;
20511;SDS011;10414;52.074;5.126;2022-12-07T15:44:00;2.78;;;0.90;;
20511;SDS011;10414;52.074;5.126;2022-12-07T15:46:46;6.25;;;1.20;;
20511;SDS011;10414;52.074;5.126;2022-12-07T15:49:15;4.03;;;0.98;;
20511;SDS011;10414;52.074;5.126;2022-12-07T15:51:44;4.50;;;1.17;;
20511;SDS011;10414;52.074;5.126;2022-12-07T15:54:12;3.15;;;1.00;;
20511;SDS011;10414;52.074;5.126;2022-12-07T15:56:41;3.97;;;1.00;;
20511;SDS011;10414;52.074;5.126;2022-12-07T15:59:08;6.05;;;1.30;;
20511;SDS011;10414;52.074;5.126;2022-12-07T16:01:37;7.03;;;2.30;;
20511;SDS011;10414;52.074;5.126;2022-12-07T16:04:04;9.93;;;3.40;;
20511;SDS011;10414;52.074;5.126;2022-12-07T16:06:32;4.53;;;2.20;;
20511;SDS011;10414;52.074;5.126;2022-12-07T16:08:59;6.15;;;1.70;;
20511;SDS011;10414;52.074;5.126;2022-12-07T16:11:26;4.15;;;1.20;;